Time;durP1;ratioP1;P1;durP2;ratioP2;P2;SDS_P1;SDS_P2;PMS_P1;PMS_P2;Temp;Humidity;BMP_temperature;BMP_pressure;BME280_temperature;BME280_humidity;BME280_pressure;Samples;Min_cycle;Max_cycle;Signal;HPM_P1;HPM_P2
2023/09/18 00:01:41;;;;;;;9.93;4.60;;;;;;;;;;4908715;29;20036;-88
2023/09/18 00:04:07;;;;;;;8.38;4.40;;;;;;;;;;4908417;29;20027;-87
2023/09/18 00:06:33;;;;;;;10.95;4.55;;;20.50;99.90;;;;;;4911266;29;20021;-87
2023/09/18 00:08:59;;;;;;;11.68;5.22;;;;;;;;;;4935593;28;20072;-85
2023/09/18 00:11:25;;;;;;;9.98;5.35;;;;;;;;;;4934452;28;20016;-87
2023/09/18 00:13:51;;;;;;;13.90;4.85;;;;;;;;;;4908056;29;20033;-88
2023/09/18 00:16:17;;;;;;;11.98;5.20;;;;;;;;;;4906787;29;20065;-89
2023/09/18 00:18:44;;;;;;;13.48;6.18;;;;;;;;;;4904047;29;20083;-87
2023/09/18 00:21:10;;;;;;;17.45;5.80;;;;;;;;;;4907860;29;20104;-87
2023/09/18 00:23:37;;;;;;;14.38;5.53;;;20.60;99.90;;;;;;4915691;29;20040;-86
2023/09/18 00:26:03;;;;;;;13.20;4.88;;;;;;;;;;4915711;29;20104;-88
2023/09/18 00:28:29;;;;;;;13.52;4.10;;;;;;;;;;4907234;29;20043;-86
2023/09/18 00:30:55;;;;;;;15.40;5.03;;;;;;;;;;4922524;29;20063;-85
2023/09/18 00:33:21;;;;;;;12.60;4.70;;;;;;;;;;4902846;29;20025;-85
2023/09/18 00:35:49;;;;;;;11.57;3.85;;;20.90;99.90;;;;;;4904787;29;20039;-87
2023/09/18 00:38:15;;;;;;;9.85;3.13;;;;;;;;;;4900190;29;20044;-84
2023/09/18 00:40:41;;;;;;;12.88;3.85;;;;;;;;;;4895811;29;20033;-88
2023/09/18 00:43:07;;;;;;;10.15;3.47;;;;;;;;;;4902306;29;20112;-88
2023/09/18 00:45:34;;;;;;;12.80;3.60;;;20.90;99.90;;;;;;4900552;29;20024;-87
2023/09/18 00:48:00;;;;;;;13.85;3.85;;;;;;;;;;4897532;29;20154;-86
2023/09/18 00:50:26;;;;;;;13.45;3.72;;;;;;;;;;4906869;29;20025;-88
2023/09/18 00:52:53;;;;;;;10.10;3.03;;;;;;;;;;4902373;29;20064;-88
2023/09/18 00:55:19;;;;;;;12.13;3.63;;;;;;;;;;4918457;29;20406;-87
2023/09/18 00:57:46;;;;;;;13.27;3.38;;;;;;;;;;4899793;29;20039;-87
2023/09/18 01:00:16;;;;;;;13.73;3.25;;;21.00;99.90;;;;;;4903753;29;20041;-86
2023/09/18 01:02:43;;;;;;;14.52;3.60;;;;;;;;;;4914866;29;20372;-87
2023/09/18 01:05:09;;;;;;;17.25;3.70;;;;;;;;;;4904323;29;20522;-86
2023/09/18 01:07:35;;;;;;;12.50;4.30;;;;;;;;;;4902807;29;20029;-87
2023/09/18 01:10:01;;;;;;;12.73;3.30;;;;;;;;;;4914651;29;20095;-85
2023/09/18 01:12:46;;;;;;;16.42;3.47;;;21.10;99.90;;;;;;4903609;29;20104;-87
2023/09/18 01:15:14;;;;;;;10.88;3.22;;;21.00;99.90;;;;;;4917124;29;20028;-85
2023/09/18 01:17:40;;;;;;;15.20;3.42;;;21.00;99.90;;;;;;4899561;29;20045;-87
2023/09/18 01:20:10;;;;;;;12.43;3.50;;;21.00;99.90;;;;;;4905729;29;20131;-87
2023/09/18 01:22:36;;;;;;;13.48;3.58;;;;;;;;;;4894049;29;20032;-87
2023/09/18 01:25:02;;;;;;;21.75;4.03;;;;;;;;;;4901258;29;20039;-88
2023/09/18 01:27:28;;;;;;;12.40;3.90;;;;;;;;;;4903285;29;20039;-86
2023/09/18 01:29:54;;;;;;;13.65;3.50;;;20.80;99.90;;;;;;4895921;29;20052;-88
2023/09/18 01:32:25;;;;;;;10.43;3.88;;;20.80;99.90;;;;;;4903390;29;20029;-87
2023/09/18 01:34:54;;;;;;;11.57;4.07;;;20.80;99.90;;;;;;4902749;29;20029;-85
2023/09/18 01:37:22;;;;;;;9.85;3.67;;;20.80;99.90;;;;;;4899279;29;20491;-87
2023/09/18 01:39:49;;;;;;;14.48;3.35;;;;;;;;;;4908794;29;20115;-88
2023/09/18 01:42:15;;;;;;;14.45;3.38;;;;;;;;;;4903847;29;20033;-87
2023/09/18 01:44:41;;;;;;;12.00;3.38;;;;;;;;;;4904862;29;20033;-86
2023/09/18 01:47:17;;;;;;;14.35;4.28;;;20.70;99.90;;;;;;4905804;29;20024;-86
2023/09/18 01:49:43;;;;;;;15.93;3.63;;;;;;;;;;4921528;29;20035;-86
2023/09/18 01:52:10;;;;;;;9.05;4.00;;;;;;;;;;4915561;29;20012;-87
2023/09/18 01:54:36;;;;;;;15.07;4.13;;;;;;;;;;4912528;29;20043;-87
2023/09/18 01:57:03;;;;;;;13.23;3.85;;;;;;;;;;4920001;29;20033;-87
2023/09/18 01:59:29;;;;;;;13.95;3.92;;;;;;;;;;4906484;29;20129;-86
2023/09/18 02:01:55;;;;;;;12.20;4.03;;;;;;;;;;4920134;29;20037;-88
2023/09/18 02:04:21;;;;;;;15.27;4.03;;;;;;;;;;4919797;29;20107;-87
2023/09/18 02:06:49;;;;;;;14.73;3.85;;;;;;;;;;4901207;29;20062;-87
2023/09/18 02:09:15;;;;;;;15.38;4.10;;;;;;;;;;4903501;29;20033;-87
2023/09/18 02:11:43;;;;;;;13.90;4.40;;;20.70;99.90;;;;;;4900634;29;20044;-88
2023/09/18 02:14:09;;;;;;;14.50;3.78;;;;;;;;;;4919753;29;20037;-85
2023/09/18 02:16:36;;;;;;;12.40;4.00;;;;;;;;;;4902778;29;20037;-88
2023/09/18 02:19:03;;;;;;;18.27;4.80;;;20.80;99.90;;;;;;4911057;29;20033;-87
2023/09/18 02:21:29;;;;;;;12.13;3.35;;;;;;;;;;4900849;29;20129;-88
2023/09/18 02:23:55;;;;;;;17.73;4.28;;;;;;;;;;4900507;29;20061;-86
2023/09/18 02:26:23;;;;;;;15.10;3.97;;;20.80;99.90;;;;;;4902378;29;20033;-87
2023/09/18 02:28:49;;;;;;;13.35;4.18;;;;;;;;;;4903059;29;20024;-86
2023/09/18 02:31:16;;;;;;;17.40;4.32;;;;;;;;;;4908756;29;20032;-88
2023/09/18 02:33:42;;;;;;;17.15;4.68;;;;;;;;;;4904231;29;20036;-88
2023/09/18 02:36:08;;;;;;;15.68;4.53;;;;;;;;;;4902410;29;20088;-87
2023/09/18 02:38:34;;;;;;;16.08;4.80;;;20.50;99.90;;;;;;4902714;29;20127;-88
2023/09/18 02:41:00;;;;;;;21.13;4.68;;;;;;;;;;4921148;29;20025;-88
2023/09/18 02:43:26;;;;;;;16.25;4.53;;;;;;;;;;4902601;29;20021;-87
2023/09/18 02:45:52;;;;;;;14.68;3.83;;;;;;;;;;4916774;29;20718;-86
2023/09/18 02:48:19;;;;;;;15.07;4.07;;;;;;;;;;4905796;29;20033;-87
2023/09/18 02:50:45;;;;;;;16.02;4.68;;;20.90;99.90;;;;;;4903835;29;20033;-88
2023/09/18 02:53:22;;;;;;;14.50;3.90;;;20.80;99.90;;;;;;4905698;29;20049;-87
2023/09/18 02:55:50;;;;;;;14.93;4.15;;;20.80;99.90;;;;;;4917499;29;20590;-88
2023/09/18 02:58:16;;;;;;;17.58;4.43;;;;;;;;;;4921847;29;20021;-87
2023/09/18 03:00:44;;;;;;;19.02;4.40;;;20.80;99.90;;;;;;4909274;29;20395;-89
2023/09/18 03:03:11;;;;;;;15.00;4.35;;;;;;;;;;4907948;29;20060;-86
2023/09/18 03:05:37;;;;;;;15.35;3.80;;;20.70;99.90;;;;;;4906507;29;20029;-87
2023/09/18 03:08:03;;;;;;;20.48;4.10;;;20.70;99.90;;;;;;4915795;29;20080;-88
2023/09/18 03:10:35;;;;;;;20.73;4.28;;;20.70;99.90;;;;;;4901793;29;20049;-87
2023/09/18 03:13:04;;;;;;;19.27;4.65;;;20.70;99.90;;;;;;4905054;29;20040;-87
2023/09/18 03:15:30;;;;;;;18.05;4.57;;;20.70;99.90;;;;;;4903304;29;20032;-88
2023/09/18 03:17:58;;;;;;;21.23;5.00;;;20.60;99.90;;;;;;4921217;29;20526;-88
2023/09/18 03:20:24;;;;;;;17.73;4.45;;;20.60;99.90;;;;;;4920184;29;20050;-88
2023/09/18 03:23:02;;;;;;;23.55;4.95;;;20.60;99.90;;;;;;4916713;29;20150;-86
2023/09/18 03:25:28;;;;;;;21.65;4.82;;;;;;;;;;4917615;29;20120;-86
2023/09/18 03:27:55;;;;;;;22.30;5.03;;;20.60;99.90;;;;;;4903848;29;20448;-88
2023/09/18 03:30:23;;;;;;;14.55;4.22;;;20.10;99.90;;;;;;4917065;29;20024;-88
2023/09/18 03:32:49;;;;;;;22.65;4.95;;;;;;;;;;4904751;29;20041;-87
2023/09/18 03:35:18;;;;;;;18.15;5.03;;;;;;;;;;4908250;29;20096;-88
2023/09/18 03:37:51;;;;;;;23.15;4.63;;;20.50;99.90;;;;;;4907328;29;20037;-87
2023/09/18 03:40:18;;;;;;;16.65;4.63;;;20.40;99.90;;;;;;4909402;29;20024;-87
2023/09/18 03:42:44;;;;;;;18.00;4.50;;;;;;;;;;4921212;29;20040;-89
2023/09/18 03:45:10;;;;;;;15.93;4.25;;;20.30;99.90;;;;;;4904104;29;20055;-87
2023/09/18 03:47:37;;;;;;;16.52;4.20;;;;;;;;;;4906696;29;20033;-88
2023/09/18 03:50:03;;;;;;;18.30;3.80;;;20.20;99.90;;;;;;4919806;29;20057;-89
2023/09/18 03:52:29;;;;;;;15.45;4.07;;;;;;;;;;4910470;29;20043;-88
2023/09/18 03:54:55;;;;;;;15.02;3.20;;;;;;;;;;4906401;29;20035;-89
2023/09/18 03:57:21;;;;;;;16.05;4.22;;;;;;;;;;4908695;29;20031;-89
2023/09/18 03:59:47;;;;;;;13.65;3.13;;;;;;;;;;4906363;29;20057;-88
2023/09/18 04:02:13;;;;;;;13.55;2.67;;;;;;;;;;4892904;29;20036;-89
2023/09/18 04:04:39;;;;;;;9.05;2.53;;;;;;;;;;4904691;29;20060;-87
2023/09/18 04:07:09;;;;;;;10.52;2.78;;;20.10;99.90;;;;;;4904910;29;20024;-89
2023/09/18 04:09:35;;;;;;;7.82;2.50;;;;;;;;;;4908147;29;20534;-90
2023/09/18 04:12:07;;;;;;;11.23;2.72;;;20.10;99.90;;;;;;4902262;29;20056;-87
2023/09/18 04:14:33;;;;;;;10.65;2.30;;;;;;;;;;4903630;29;20033;-89
2023/09/18 04:17:00;;;;;;;10.40;2.40;;;;;;;;;;4902712;29;20032;-87
2023/09/18 04:19:26;;;;;;;9.55;2.63;;;;;;;;;;4900123;29;20047;-89
2023/09/18 04:21:52;;;;;;;12.00;2.40;;;;;;;;;;4917626;29;20551;-89
2023/09/18 04:24:18;;;;;;;8.95;2.67;;;;;;;;;;4902763;29;20046;-88
2023/09/18 04:26:45;;;;;;;10.95;3.13;;;;;;;;;;4905867;29;20037;-87
2023/09/18 04:29:11;;;;;;;13.20;2.65;;;;;;;;;;4905247;29;20032;-87
2023/09/18 04:31:37;;;;;;;9.55;3.08;;;;;;;;;;4901124;29;20032;-87
2023/09/18 04:34:04;;;;;;;10.63;2.45;;;;;;;;;;4897655;29;20092;-85
2023/09/18 04:36:30;;;;;;;11.45;2.60;;;;;;;;;;4899202;29;20041;-86
2023/09/18 04:38:56;;;;;;;8.82;2.92;;;;;;;;;;4902959;29;20111;-86
2023/09/18 04:41:22;;;;;;;10.70;2.67;;;;;;;;;;4898837;29;20068;-84
2023/09/18 04:43:48;;;;;;;11.32;2.47;;;;;;;;;;4896803;29;20017;-85
2023/09/18 04:46:14;;;;;;;13.02;3.17;;;;;;;;;;4909446;29;20063;-82
2023/09/18 04:48:40;;;;;;;15.75;3.13;;;;;;;;;;4912656;29;20025;-83
2023/09/18 04:51:06;;;;;;;13.23;2.72;;;;;;;;;;4912194;29;20016;-86
2023/09/18 04:53:32;;;;;;;11.43;2.80;;;19.70;99.90;;;;;;4910776;29;20036;-86
2023/09/18 04:55:58;;;;;;;9.65;2.78;;;;;;;;;;4911367;29;20036;-85
2023/09/18 04:58:24;;;;;;;10.27;2.60;;;;;;;;;;4905260;29;20142;-86
2023/09/18 05:00:57;;;;;;;10.98;2.45;;;19.60;99.90;;;;;;4901078;29;20029;-87
2023/09/18 05:03:23;;;;;;;11.50;2.92;;;;;;;;;;4914945;29;20052;-83
2023/09/18 05:05:50;;;;;;;10.30;3.08;;;;;;;;;;4900587;29;20036;-85
2023/09/18 05:08:17;;;;;;;15.65;3.45;;;19.60;99.90;;;;;;4899878;29;20068;-89
2023/09/18 05:10:43;;;;;;;9.73;2.92;;;;;;;;;;4899666;29;20029;-87
2023/09/18 05:13:09;;;;;;;10.10;2.90;;;;;;;;;;4898284;29;20036;-86
2023/09/18 05:15:37;;;;;;;10.02;3.05;;;;;;;;;;4898615;29;20036;-85
2023/09/18 05:18:03;;;;;;;9.65;3.00;;;;;;;;;;4898825;29;20120;-88
2023/09/18 05:20:30;;;;;;;7.70;2.60;;;;;;;;;;4899513;29;20041;-88
2023/09/18 05:22:57;;;;;;;10.57;2.63;;;;;;;;;;4912421;29;20033;-87
2023/09/18 05:25:25;;;;;;;10.80;3.08;;;19.50;99.90;;;;;;4904385;29;20031;-86
2023/09/18 05:27:57;;;;;;;9.13;2.40;;;;;;;;;;4897093;29;20036;-87
2023/09/18 05:30:33;;;;;;;15.57;3.05;;;19.40;99.90;;;;;;4899288;29;20017;-87
2023/09/18 05:33:06;;;;;;;10.38;2.90;;;;;;;;;;4915306;29;20640;-87
2023/09/18 05:35:39;;;;;;;8.10;3.00;;;19.40;99.90;;;;;;4902642;29;20041;-89
2023/09/18 05:38:05;;;;;;;13.48;3.05;;;;;;;;;;4898537;29;20036;-88
2023/09/18 05:40:31;;;;;;;16.65;3.30;;;;;;;;;;4901612;29;20037;-86
2023/09/18 05:42:58;;;;;;;8.93;2.72;;;;;;;;;;4897020;29;20037;-88
2023/09/18 05:45:24;;;;;;;9.50;2.45;;;;;;;;;;4900545;29;20025;-87
2023/09/18 05:47:50;;;;;;;11.25;2.42;;;;;;;;;;4897141;29;20076;-88
2023/09/18 05:50:16;;;;;;;10.93;2.50;;;;;;;;;;4897709;29;20043;-88
2023/09/18 05:52:44;;;;;;;10.32;2.63;;;19.40;99.90;;;;;;4897568;29;20510;-88
2023/09/18 05:55:10;;;;;;;10.00;2.83;;;;;;;;;;4912738;29;20624;-89
2023/09/18 05:57:36;;;;;;;14.88;2.92;;;;;;;;;;4915557;29;20036;-86
2023/09/18 06:00:03;;;;;;;10.02;2.60;;;;;;;;;;4900965;29;20024;-87
2023/09/18 06:02:29;;;;;;;10.90;2.67;;;;;;;;;;4891505;29;20040;-89
2023/09/18 06:04:57;;;;;;;9.88;2.45;;;;;;;;;;4894037;29;20029;-87
2023/09/18 06:07:23;;;;;;;9.00;2.65;;;;;;;;;;4898104;29;20081;-85
2023/09/18 06:09:49;;;;;;;4.97;2.20;;;;;;;;;;4895487;29;20032;-88
2023/09/18 06:12:15;;;;;;;7.18;2.35;;;;;;;;;;4900976;29;20116;-89
2023/09/18 06:14:42;;;;;;;8.55;2.00;;;;;;;;;;4898700;29;20036;-88
2023/09/18 06:17:09;;;;;;;10.63;2.85;;;;;;;;;;4895770;29;20029;-86
2023/09/18 06:19:35;;;;;;;11.93;2.55;;;;;;;;;;4898748;29;20084;-88
2023/09/18 06:22:04;;;;;;;7.50;2.28;;;;;;;;;;4897923;29;20072;-87
2023/09/18 06:24:30;;;;;;;8.75;2.13;;;;;;;;;;4893076;29;20076;-88
2023/09/18 06:26:56;;;;;;;8.40;2.40;;;;;;;;;;4894666;29;20028;-89
2023/09/18 06:29:22;;;;;;;5.07;1.73;;;;;;;;;;4893041;29;20025;-88
2023/09/18 06:31:49;;;;;;;9.48;2.17;;;19.30;99.90;;;;;;4903409;29;20056;-87
2023/09/18 06:34:15;;;;;;;7.80;2.00;;;;;;;;;;4900413;29;20100;-87
2023/09/18 06:36:41;;;;;;;5.72;2.05;;;;;;;;;;4901424;29;20052;-87
2023/09/18 06:39:07;;;;;;;9.75;2.15;;;;;;;;;;4901689;29;20372;-88
2023/09/18 06:41:33;;;;;;;5.55;1.92;;;;;;;;;;4902536;29;20080;-84
2023/09/18 06:44:02;;;;;;;7.22;2.10;;;;;;;;;;4915373;29;21288;-89
2023/09/18 06:46:28;;;;;;;6.55;1.80;;;;;;;;;;4897967;29;20044;-87
2023/09/18 06:48:56;;;;;;;5.97;1.95;;;;;;;;;;4900677;29;20021;-87
2023/09/18 06:51:22;;;;;;;5.90;2.33;;;;;;;;;;4899173;29;20036;-87
2023/09/18 06:53:47;;;;;;;6.35;2.10;;;19.40;99.90;;;;;;4898889;29;20032;-88
2023/09/18 06:56:13;;;;;;;8.85;2.30;;;19.40;99.90;;;;;;4898281;29;20029;-87
2023/09/18 06:58:39;;;;;;;6.10;1.67;;;;;;;;;;4900915;29;20032;-87
2023/09/18 07:01:09;;;;;;;6.43;1.95;;;19.50;99.90;;;;;;4901169;29;20044;-88
2023/09/18 07:03:36;;;;;;;6.20;1.77;;;;;;;;;;4900293;29;20021;-87
2023/09/18 07:06:02;;;;;;;6.90;1.90;;;;;;;;;;4899545;29;20033;-87
2023/09/18 07:08:28;;;;;;;7.53;2.08;;;;;;;;;;4895333;29;20028;-86
2023/09/18 07:10:54;;;;;;;5.93;1.50;;;19.50;99.90;;;;;;4898498;29;20024;-87
2023/09/18 07:13:20;;;;;;;5.00;1.55;;;;;;;;;;4903764;29;20036;-86
2023/09/18 07:15:47;;;;;;;9.02;1.90;;;;;;;;;;4907897;29;20479;-87
2023/09/18 07:18:14;;;;;;;5.70;1.30;;;;;;;;;;4901717;29;20286;-87
2023/09/18 07:20:41;;;;;;;5.18;1.50;;;19.50;99.90;;;;;;4904220;29;20032;-86
2023/09/18 07:23:07;;;;;;;5.55;1.45;;;;;;;;;;4920166;29;20032;-88
2023/09/18 07:25:33;;;;;;;7.00;1.35;;;;;;;;;;4920120;29;20032;-85
2023/09/18 07:27:59;;;;;;;5.90;1.60;;;;;;;;;;4907261;29;20028;-88
2023/09/18 07:30:27;;;;;;;4.93;1.63;;;;;;;;;;4903232;29;20088;-89
2023/09/18 07:32:56;;;;;;;8.20;1.60;;;19.50;99.90;;;;;;4915710;29;20383;-87
2023/09/18 07:35:22;;;;;;;3.33;1.10;;;;;;;;;;4916421;29;20056;-90
2023/09/18 07:37:48;;;;;;;3.25;1.00;;;;;;;;;;4900940;29;20395;-89
2023/09/18 07:40:15;;;;;;;2.88;1.30;;;;;;;;;;4900632;29;20048;-87
2023/09/18 07:42:43;;;;;;;6.25;1.35;;;;;;;;;;4900137;29;20037;-87
2023/09/18 07:45:09;;;;;;;7.63;1.60;;;;;;;;;;4904998;29;20024;-88
2023/09/18 07:47:35;;;;;;;4.60;1.40;;;;;;;;;;4903927;29;20041;-86
2023/09/18 07:50:02;;;;;;;5.40;1.38;;;;;;;;;;4902859;29;20056;-86
2023/09/18 07:52:28;;;;;;;3.15;1.20;;;;;;;;;;4905019;29;20060;-87
2023/09/18 07:54:54;;;;;;;3.58;1.25;;;;;;;;;;4900660;29;20056;-85
2023/09/18 07:57:20;;;;;;;6.28;1.70;;;19.50;99.90;;;;;;4902532;29;20100;-88
2023/09/18 07:59:46;;;;;;;6.78;1.52;;;;;;;;;;4913241;29;20043;-89
2023/09/18 08:02:12;;;;;;;4.57;1.30;;;;;;;;;;4897248;29;20031;-87
2023/09/18 08:04:39;;;;;;;4.78;1.65;;;;;;;;;;4900751;29;20394;-85
2023/09/18 08:07:08;;;;;;;5.60;1.50;;;;;;;;;;4900029;29;20033;-87
2023/09/18 08:09:37;;;;;;;4.03;1.20;;;;;;;;;;4901095;29;20055;-87
2023/09/18 08:12:03;;;;;;;3.80;1.40;;;;;;;;;;4902572;29;20054;-87
2023/09/18 08:14:29;;;;;;;2.92;1.27;;;;;;;;;;4902332;29;20115;-86
2023/09/18 08:16:59;;;;;;;6.07;1.50;;;19.80;99.90;;;;;;4902282;29;20028;-87
2023/09/18 08:19:26;;;;;;;4.40;1.55;;;;;;;;;;4896602;29;20129;-86
2023/09/18 08:21:54;;;;;;;6.05;1.50;;;20.00;99.90;;;;;;4900291;29;20088;-87
2023/09/18 08:24:21;;;;;;;7.13;1.70;;;;;;;;;;4916327;29;20024;-87
2023/09/18 08:26:47;;;;;;;3.65;1.40;;;;;;;;;;4896739;29;20252;-87
2023/09/18 08:29:13;;;;;;;3.65;1.60;;;20.20;99.90;;;;;;4907049;29;20020;-86
2023/09/18 08:31:39;;;;;;;2.88;1.20;;;;;;;;;;4926979;29;20037;-86
2023/09/18 08:34:05;;;;;;;4.75;1.60;;;;;;;;;;4915127;29;20048;-87
2023/09/18 08:36:31;;;;;;;5.78;1.00;;;;;;;;;;4915517;29;20044;-87
2023/09/18 08:38:57;;;;;;;6.05;1.50;;;;;;;;;;4914756;29;20025;-86
2023/09/18 08:41:33;;;;;;;3.72;1.13;;;;;;;;;;4906220;29;20041;-89
2023/09/18 08:44:01;;;;;;;3.97;1.30;;;;;;;;;;4904438;29;20087;-88
2023/09/18 08:46:27;;;;;;;4.10;1.48;;;;;;;;;;4903407;29;20048;-88
2023/09/18 08:48:55;;;;;;;5.70;1.58;;;20.30;99.90;;;;;;4905438;29;20029;-90
2023/09/18 08:51:22;;;;;;;4.68;1.60;;;;;;;;;;4915588;29;20032;-88
2023/09/18 08:53:48;;;;;;;5.45;1.35;;;;;;;;;;4902560;29;20029;-90
2023/09/18 08:56:15;;;;;;;5.45;2.00;;;;;;;;;;4906337;29;20386;-87
2023/09/18 08:58:43;;;;;;;4.38;1.27;;;20.70;99.90;;;;;;4915863;29;20039;-87
2023/09/18 09:01:10;;;;;;;3.70;1.40;;;20.70;99.90;;;;;;4905292;29;20541;-87
2023/09/18 09:03:41;;;;;;;5.53;1.42;;;20.60;99.90;;;;;;4909864;29;20040;-87
2023/09/18 09:06:07;;;;;;;5.18;1.67;;;;;;;;;;4920365;29;20049;-88
2023/09/18 09:08:34;;;;;;;5.97;1.42;;;;;;;;;;4903216;29;20055;-86
2023/09/18 09:11:00;;;;;;;5.97;1.50;;;;;;;;;;4908440;29;20099;-88
2023/09/18 09:13:26;;;;;;;3.38;1.38;;;;;;;;;;4903352;29;20032;-84
2023/09/18 09:15:55;;;;;;;5.75;1.77;;;21.20;99.90;;;;;;4909013;29;20056;-87
2023/09/18 09:18:21;;;;;;;4.67;1.37;;;;;;;;;;4900978;29;20033;-87
2023/09/18 09:20:58;;;;;;;5.53;1.58;;;21.50;99.90;;;;;;4905517;29;20080;-87
2023/09/18 09:23:44;;;;;;;7.95;1.70;;;21.50;99.90;;;;;;4905060;29;20029;-86
2023/09/18 09:26:15;;;;;;;5.68;1.70;;;21.60;99.90;;;;;;4900651;29;20111;-87
2023/09/18 09:28:43;;;;;;;5.45;1.73;;;;;;;;;;4903803;29;20050;-86
2023/09/18 09:31:13;;;;;;;7.30;1.60;;;;;;;;;;4906846;29;20047;-87
2023/09/18 09:33:53;;;;;;;6.22;1.63;;;21.50;99.90;;;;;;4908917;29;20029;-87
2023/09/18 09:36:19;;;;;;;4.97;1.30;;;;;;;;;;4899352;29;20029;-87
2023/09/18 09:38:45;;;;;;;5.60;1.50;;;;;;;;;;4908464;29;20481;-87
2023/09/18 09:41:14;;;;;;;6.90;1.33;;;21.40;99.90;;;;;;4902581;29;20029;-87
2023/09/18 09:43:42;;;;;;;5.50;1.60;;;21.50;99.90;;;;;;4921543;29;20035;-87
2023/09/18 09:46:18;;;;;;;3.83;1.50;;;21.40;99.90;;;;;;4917023;29;20024;-87
2023/09/18 09:49:04;;;;;;;5.53;1.63;;;21.50;99.90;;;;;;4907981;29;20052;-87
2023/09/18 09:51:30;;;;;;;6.45;1.55;;;;;;;;;;4921761;29;20119;-86
2023/09/18 09:53:58;;;;;;;3.47;1.40;;;;;;;;;;4913538;29;20029;-87
2023/09/18 09:56:40;;;;;;;4.82;1.80;;;;;;;;;;4912701;29;20036;-86
2023/09/18 09:59:07;;;;;;;5.38;1.65;;;;;;;;;;4906512;29;20044;-87
2023/09/18 10:01:34;;;;;;;9.00;1.98;;;;;;;;;;4908604;29;20491;-86
2023/09/18 10:04:07;;;;;;;7.80;2.25;;;21.40;99.90;;;;;;4903740;29;20036;-86
2023/09/18 10:06:34;;;;;;;8.40;2.30;;;;;;;;;;4907594;29;20112;-87
2023/09/18 10:09:00;;;;;;;5.72;1.67;;;;;;;;;;4904283;29;20067;-87
2023/09/18 10:11:26;;;;;;;4.93;1.67;;;21.60;99.90;;;;;;4926137;29;20051;-84
2023/09/18 10:14:10;;;;;;;7.15;2.20;;;21.50;99.90;;;;;;4902763;29;20025;-86
2023/09/18 10:16:38;;;;;;;4.78;1.95;;;21.50;99.90;;;;;;4918477;29;20040;-85
2023/09/18 10:19:33;;;;;;;7.10;2.40;;;21.60;99.90;;;;;;4905780;29;20025;-86
2023/09/18 10:22:05;;;;;;;6.05;2.00;;;21.70;99.90;;;;;;4901852;29;20101;-87
2023/09/18 10:24:37;;;;;;;5.45;1.65;;;21.70;99.90;;;;;;4897398;29;20164;-86
2023/09/18 10:27:05;;;;;;;7.40;2.63;;;21.70;99.90;;;;;;4916345;29;20028;-86
2023/09/18 10:29:34;;;;;;;6.35;1.77;;;21.80;99.90;;;;;;4917637;29;20028;-88
2023/09/18 10:32:05;;;;;;;8.20;2.10;;;21.80;99.90;;;;;;4915900;29;20061;-87
2023/09/18 10:34:31;;;;;;;5.20;2.20;;;;;;;;;;4916500;29;20033;-88
2023/09/18 10:37:00;;;;;;;4.38;1.70;;;21.80;99.90;;;;;;4902906;29;20395;-86
2023/09/18 10:39:28;;;;;;;5.00;2.20;;;21.90;99.90;;;;;;4902242;29;20032;-84
2023/09/18 10:41:58;;;;;;;6.15;2.10;;;21.90;99.90;;;;;;4916524;29;20111;-87
2023/09/18 10:44:24;;;;;;;3.38;1.80;;;;;;;;;;4899951;29;20182;-87
2023/09/18 10:46:51;;;;;;;3.25;1.50;;;22.10;99.90;;;;;;4902038;29;20029;-88
2023/09/18 10:49:18;;;;;;;5.82;1.80;;;;;;;;;;4917997;29;20028;-87
2023/09/18 10:51:44;;;;;;;6.93;2.33;;;;;;;;;;4916380;29;20025;-87
2023/09/18 10:54:30;;;;;;;6.03;2.42;;;22.70;99.90;;;;;;4907646;29;20039;-86
2023/09/18 10:56:57;;;;;;;6.82;1.88;;;22.70;99.90;;;;;;4923230;29;20036;-87
2023/09/18 10:59:23;;;;;;;4.82;1.90;;;;;;;;;;4924877;29;20099;-85
2023/09/18 11:01:49;;;;;;;3.53;1.70;;;;;;;;;;4909267;29;20056;-85
2023/09/18 11:04:19;;;;;;;4.47;1.70;;;22.70;99.90;;;;;;4897837;29;20040;-86
2023/09/18 11:06:54;;;;;;;4.25;1.85;;;22.70;99.90;;;;;;4904063;29;20029;-87
2023/09/18 11:09:44;;;;;;;8.48;2.38;;;22.80;99.90;;;;;;4905810;29;20116;-87
2023/09/18 11:12:11;;;;;;;9.20;2.10;;;22.80;99.90;;;;;;4898616;29;20028;-87
2023/09/18 11:14:56;;;;;;;3.90;2.17;;;;;;;;;;4891980;29;20044;-85
2023/09/18 11:17:36;;;;;;;3.13;1.75;;;23.00;99.90;;;;;;4904925;29;20040;-86
2023/09/18 11:20:17;;;;;;;3.33;1.73;;;23.20;99.90;;;;;;4918384;29;20056;-87
2023/09/18 11:22:47;;;;;;;6.93;1.95;;;23.40;99.90;;;;;;4904117;29;20036;-85
2023/09/18 11:25:38;;;;;;;4.38;1.85;;;23.60;99.90;;;;;;4905636;29;20032;-87
2023/09/18 11:28:37;;;;;;;3.38;1.70;;;23.60;99.90;;;;;;4916883;29;20123;-87
2023/09/18 11:31:03;;;;;;;6.13;1.88;;;;;;;;;;4903734;29;20028;-87
2023/09/18 11:33:39;;;;;;;4.63;1.80;;;;;;;;;;4918319;29;20561;-87
2023/09/18 11:36:07;;;;;;;6.45;2.45;;;23.50;99.90;;;;;;4905850;29;20032;-88
2023/09/18 11:38:35;;;;;;;3.80;1.70;;;23.40;99.90;;;;;;4902301;29;20029;-87
2023/09/18 11:41:03;;;;;;;3.33;1.77;;;;;;;;;;4904795;29;20025;-87
2023/09/18 11:43:29;;;;;;;3.67;1.73;;;;;;;;;;4903791;29;20033;-86
2023/09/18 11:45:59;;;;;;;4.40;1.60;;;23.80;99.90;;;;;;4923821;29;20511;-88
2023/09/18 11:48:30;;;;;;;4.03;1.77;;;;;;;;;;4921543;29;20032;-82
2023/09/18 11:50:57;;;;;;;5.97;1.90;;;;;;;;;;4904872;29;20063;-87
2023/09/18 11:53:24;;;;;;;7.00;2.13;;;;;;;;;;4908157;29;20395;-86
2023/09/18 11:55:50;;;;;;;4.53;1.60;;;;;;;;;;4907346;29;20022;-84
2023/09/18 11:58:16;;;;;;;8.57;1.73;;;;;;;;;;4906506;29;20031;-87
2023/09/18 12:00:48;;;;;;;4.13;1.80;;;;;;;;;;4908784;29;20487;-85
2023/09/18 12:03:26;;;;;;;4.88;1.92;;;24.70;99.90;;;;;;4901677;29;20092;-83
2023/09/18 12:05:59;;;;;;;6.68;1.65;;;24.80;99.90;;;;;;4900344;29;20052;-86
2023/09/18 12:08:26;;;;;;;3.90;1.70;;;;;;;;;;4906929;29;20028;-84
2023/09/18 12:10:53;;;;;;;6.75;1.90;;;;;;;;;;4906826;29;20033;-86
2023/09/18 12:13:19;;;;;;;5.15;1.83;;;;;;;;;;4908282;29;20037;-84
2023/09/18 12:15:45;;;;;;;5.07;1.70;;;;;;;;;;4905080;29;20037;-86
2023/09/18 12:18:12;;;;;;;5.45;1.77;;;;;;;;;;4919508;29;20443;-86
2023/09/18 12:20:38;;;;;;;2.95;1.70;;;;;;;;;;4908108;29;20036;-86
2023/09/18 12:23:04;;;;;;;6.30;1.75;;;;;;;;;;4909134;29;20033;-86
2023/09/18 12:25:31;;;;;;;4.32;1.60;;;;;;;;;;4911621;29;20034;-86
2023/09/18 12:27:59;;;;;;;8.13;1.60;;;;;;;;;;4913102;29;20025;-85
2023/09/18 12:30:25;;;;;;;6.22;1.52;;;;;;;;;;4910572;29;20391;-85
2023/09/18 12:32:52;;;;;;;5.80;2.00;;;;;;;;;;4905976;29;20040;-85
2023/09/18 12:35:21;;;;;;;5.20;1.58;;;;;;;;;;4926927;29;20029;-85
2023/09/18 12:37:48;;;;;;;6.13;2.20;;;;;;;;;;4910731;29;20040;-84
2023/09/18 12:40:21;;;;;;;5.03;1.70;;;;;;;;;;4915905;29;20044;-84
2023/09/18 12:42:48;;;;;;;3.78;1.80;;;;;;;;;;4911941;29;20122;-85
2023/09/18 12:45:14;;;;;;;2.75;1.50;;;;;;;;;;4909884;29;20061;-84
2023/09/18 12:47:40;;;;;;;4.78;1.50;;;;;;;;;;4909457;29;20036;-85
2023/09/18 12:50:07;;;;;;;4.97;1.50;;;;;;;;;;4922718;29;20033;-84
2023/09/18 12:52:33;;;;;;;4.82;1.70;;;;;;;;;;4909179;29;20063;-84
2023/09/18 12:55:03;;;;;;;7.00;1.80;;;;;;;;;;4908175;29;20061;-85
2023/09/18 12:57:30;;;;;;;2.83;1.50;;;;;;;;;;4906213;29;20037;-83
2023/09/18 12:59:56;;;;;;;3.15;1.45;;;;;;;;;;4909505;29;20029;-84
2023/09/18 13:02:22;;;;;;;2.78;1.73;;;;;;;;;;4922722;29;20028;-85
2023/09/18 13:04:53;;;;;;;4.18;1.65;;;;;;;;;;4907730;29;20104;-84
2023/09/18 13:07:19;;;;;;;5.57;1.92;;;;;;;;;;4905524;29;20266;-82
2023/09/18 13:10:01;;;;;;;3.67;1.70;;;;;;;;;;4906908;29;20029;-85
2023/09/18 13:12:59;;;;;;;4.25;2.15;;;25.60;99.90;;;;;;4905584;29;20028;-82
2023/09/18 13:15:27;;;;;;;4.82;1.70;;;;;;;;;;4891406;29;20036;-86
2023/09/18 13:17:53;;;;;;;4.18;1.70;;;;;;;;;;4911572;29;20044;-84
2023/09/18 13:20:28;;;;;;;7.40;1.90;;;25.00;99.90;;;;;;4910089;29;20056;-83
2023/09/18 13:22:57;;;;;;;6.20;2.00;;;24.90;99.90;;;;;;4920642;29;20079;-84
2023/09/18 13:25:25;;;;;;;6.05;2.00;;;24.70;99.90;;;;;;4923439;29;20028;-85
2023/09/18 13:27:52;;;;;;;4.13;1.40;;;;;;;;;;4902850;29;20044;-84
2023/09/18 13:30:20;;;;;;;6.03;1.75;;;;;;;;;;4908272;29;20088;-85
2023/09/18 13:32:49;;;;;;;6.15;2.08;;;;;;;;;;4910303;29;20124;-84
2023/09/18 13:35:19;;;;;;;4.93;2.17;;;;;;;;;;4909738;29;20093;-85
2023/09/18 13:37:45;;;;;;;7.63;1.80;;;;;;;;;;4906109;29;20048;-85
2023/09/18 13:40:11;;;;;;;4.20;1.90;;;;;;;;;;4900959;29;20543;-83
2023/09/18 13:42:38;;;;;;;4.82;1.80;;;;;;;;;;4920786;29;20036;-85
2023/09/18 13:45:07;;;;;;;4.93;2.05;;;;;;;;;;4908266;29;20033;-84
2023/09/18 13:47:35;;;;;;;5.70;2.10;;;;;;;;;;4907623;29;20028;-85
2023/09/18 13:50:02;;;;;;;4.35;1.65;;;;;;;;;;4920270;29;20036;-83
2023/09/18 13:52:29;;;;;;;4.30;1.98;;;;;;;;;;4904256;29;20056;-82
2023/09/18 13:54:55;;;;;;;7.13;1.70;;;;;;;;;;4906365;29;20036;-83
2023/09/18 13:57:22;;;;;;;3.47;1.88;;;;;;;;;;4906434;29;20040;-85
2023/09/18 13:59:49;;;;;;;4.90;1.73;;;;;;;;;;4906068;29;20044;-85
2023/09/18 14:02:17;;;;;;;3.30;1.67;;;;;;;;;;4912072;29;20100;-84
2023/09/18 14:04:43;;;;;;;7.75;2.08;;;;;;;;;;4920086;29;20089;-83